createdAt,value
2022-09-15T00:01:43.153Z,15.80
2022-09-15T00:04:45.035Z,15.70
2022-09-15T00:07:47.142Z,15.70
2022-09-15T00:11:07.793Z,15.70
2022-09-15T00:14:09.877Z,15.70
2022-09-15T00:17:11.579Z,15.70
2022-09-15T00:20:13.375Z,15.70
2022-09-15T00:23:23.132Z,15.60
2022-09-15T00:26:27.327Z,15.60
2022-09-15T00:29:38.737Z,15.50
2022-09-15T00:32:40.527Z,15.50
2022-09-15T00:35:44.792Z,15.50
2022-09-15T00:38:47.148Z,15.50
2022-09-15T00:41:48.922Z,15.50
2022-09-15T00:44:57.185Z,15.50
2022-09-15T00:47:59.638Z,15.50
2022-09-15T00:51:10.154Z,15.50
2022-09-15T00:54:33.978Z,15.50
2022-09-15T00:57:48.609Z,15.50
2022-09-15T01:01:00.754Z,15.50
2022-09-15T01:04:02.929Z,15.40
2022-09-15T01:07:18.930Z,15.40
2022-09-15T01:10:30.727Z,15.40
2022-09-15T01:13:35.556Z,15.40
2022-09-15T01:16:51.971Z,15.40
2022-09-15T01:20:37.545Z,15.30
2022-09-15T01:23:58.757Z,15.30
2022-09-15T01:27:30.887Z,15.30
2022-09-15T01:30:38.477Z,15.30
2022-09-15T01:33:47.083Z,15.30
2022-09-15T01:36:59.463Z,15.30
2022-09-15T01:40:03.065Z,15.20
2022-09-15T01:43:08.452Z,15.20
2022-09-15T01:46:11.680Z,15.20
2022-09-15T01:52:23.521Z,15.00
2022-09-15T01:55:40.050Z,15.10
2022-09-15T01:58:42.066Z,15.10
2022-09-15T02:02:12.970Z,15.00
2022-09-15T02:05:49.526Z,15.00
2022-09-15T02:09:25.756Z,15.00
2022-09-15T02:12:50.760Z,15.00
2022-09-15T02:15:56.987Z,14.90
2022-09-15T02:19:17.407Z,15.00
2022-09-15T02:22:29.349Z,14.90
2022-09-15T02:25:38.380Z,14.80
2022-09-15T02:28:44.739Z,14.80
2022-09-15T02:31:48.740Z,14.80
2022-09-15T02:34:55.080Z,14.80
2022-09-15T02:37:58.346Z,14.80
2022-09-15T02:41:01.081Z,14.80
2022-09-15T02:44:03.780Z,14.80
2022-09-15T02:47:26.152Z,14.80
2022-09-15T02:50:34.056Z,14.70
2022-09-15T02:53:36.757Z,14.70
2022-09-15T02:56:41.688Z,14.70
2022-09-15T03:00:11.168Z,14.70
2022-09-15T03:03:13.626Z,14.70
2022-09-15T03:06:20.669Z,14.70
2022-09-15T03:09:22.626Z,14.70
2022-09-15T03:12:27.368Z,14.60
2022-09-15T03:15:37.253Z,14.70
2022-09-15T03:18:39.981Z,14.70
2022-09-15T03:21:41.668Z,14.70
2022-09-15T03:24:43.370Z,14.60
2022-09-15T03:27:46.153Z,14.60
2022-09-15T03:30:48.817Z,14.60
2022-09-15T03:33:50.668Z,14.70
2022-09-15T03:36:52.355Z,14.60
2022-09-15T03:39:57.310Z,14.60
2022-09-15T03:43:16.614Z,14.60
2022-09-15T03:46:20.828Z,14.60
2022-09-15T03:50:11.484Z,14.60
2022-09-15T03:52:58.846Z,14.60
2022-09-15T03:56:24.770Z,14.60
2022-09-15T03:59:26.429Z,14.60
2022-09-15T04:02:28.523Z,14.60
2022-09-15T04:05:30.707Z,14.50
2022-09-15T04:08:32.832Z,14.60
2022-09-15T04:11:34.686Z,14.50
2022-09-15T04:14:36.414Z,14.50
2022-09-15T04:17:56.813Z,14.50
2022-09-15T04:21:11.597Z,14.50
2022-09-15T04:24:22.511Z,14.50
2022-09-15T04:27:24.582Z,14.50
2022-09-15T04:30:37.024Z,14.50
2022-09-15T04:33:53.287Z,14.50
2022-09-15T04:36:55.033Z,14.50
2022-09-15T04:39:56.886Z,14.50
2022-09-15T04:42:58.792Z,14.50
2022-09-15T04:46:00.674Z,14.60
2022-09-15T04:49:02.799Z,14.60
2022-09-15T04:52:09.500Z,14.60
2022-09-15T04:55:20.996Z,14.60
2022-09-15T04:58:47.561Z,14.60
2022-09-15T05:01:49.452Z,14.50
2022-09-15T05:04:51.687Z,14.50
2022-09-15T05:07:53.920Z,14.50
2022-09-15T05:11:04.381Z,14.50
2022-09-15T05:14:07.017Z,14.50
2022-09-15T05:17:10.697Z,14.50
2022-09-15T05:20:13.175Z,14.40
2022-09-15T05:23:15.111Z,14.40
2022-09-15T05:26:19.778Z,14.50
2022-09-15T05:29:21.479Z,14.50
2022-09-15T05:32:35.956Z,14.50
2022-09-15T05:35:37.601Z,14.50
2022-09-15T05:38:39.483Z,14.50
2022-09-15T05:41:41.439Z,14.50
2022-09-15T05:44:43.110Z,14.40
2022-09-15T05:47:44.771Z,14.40
2022-09-15T05:50:51.540Z,14.40
2022-09-15T05:53:59.585Z,14.40
2022-09-15T05:57:01.784Z,14.40
2022-09-15T06:00:04.677Z,14.40
2022-09-15T06:03:06.679Z,14.50
2022-09-15T06:06:08.655Z,14.50
2022-09-15T06:09:10.430Z,14.40
2022-09-15T06:12:12.384Z,14.40
2022-09-15T06:15:14.342Z,14.40
2022-09-15T06:18:17.395Z,14.50
2022-09-15T06:21:27.841Z,14.50
2022-09-15T06:24:29.519Z,14.50
2022-09-15T06:27:31.704Z,14.50
2022-09-15T06:30:33.377Z,14.50
2022-09-15T06:33:35.049Z,14.50
2022-09-15T06:36:38.451Z,14.50
2022-09-15T06:39:40.136Z,14.50
2022-09-15T06:42:42.285Z,14.60
2022-09-15T06:45:44.271Z,14.60
2022-09-15T06:48:49.204Z,14.60
2022-09-15T06:51:53.955Z,14.70
2022-09-15T06:54:55.845Z,14.70
2022-09-15T06:57:58.880Z,14.70
2022-09-15T07:01:05.350Z,14.70
2022-09-15T07:04:11.494Z,14.70
2022-09-15T07:07:15.863Z,14.70
2022-09-15T07:10:17.961Z,14.80
2022-09-15T07:13:19.624Z,14.80
2022-09-15T07:16:22.645Z,14.90
2022-09-15T07:19:24.446Z,14.90
2022-09-15T07:22:26.141Z,14.90
2022-09-15T07:25:28.064Z,14.90
2022-09-15T07:28:29.801Z,15.00
2022-09-15T07:31:33.863Z,15.00
2022-09-15T07:34:35.859Z,15.00
2022-09-15T07:37:48.767Z,15.10
2022-09-15T07:40:50.767Z,15.20
2022-09-15T07:43:54.471Z,15.30
2022-09-15T07:46:59.832Z,15.40
2022-09-15T07:50:01.803Z,15.40
2022-09-15T07:53:03.995Z,15.50
2022-09-15T07:56:08.054Z,15.50
2022-09-15T07:59:10.047Z,15.50
2022-09-15T08:02:17.606Z,15.60
2022-09-15T08:05:37.344Z,15.60
2022-09-15T08:08:41.650Z,15.70
2022-09-15T08:11:43.914Z,15.80
2022-09-15T08:14:54.590Z,15.80
2022-09-15T08:18:06.965Z,15.80
2022-09-15T08:21:23.011Z,15.70
2022-09-15T08:24:24.899Z,15.80
2022-09-15T08:27:26.717Z,15.80
2022-09-15T08:30:32.058Z,15.90
2022-09-15T08:33:45.238Z,15.80
2022-09-15T08:36:56.833Z,15.90
2022-09-15T08:39:58.561Z,15.90
2022-09-15T08:43:24.214Z,15.90
2022-09-15T08:46:35.095Z,15.90
2022-09-15T08:49:58.825Z,16.00
2022-09-15T08:53:03.543Z,16.00
2022-09-15T08:56:14.773Z,16.00
2022-09-15T08:59:35.569Z,16.10
2022-09-15T09:02:49.537Z,16.20
2022-09-15T09:06:22.332Z,16.30
2022-09-15T09:09:55.195Z,16.40
2022-09-15T09:12:59.717Z,16.50
2022-09-15T09:16:10.450Z,16.60
2022-09-15T09:19:34.067Z,16.70
2022-09-15T09:22:48.489Z,16.70
2022-09-15T09:25:52.126Z,16.70
2022-09-15T09:29:04.588Z,16.80
2022-09-15T09:32:26.551Z,16.90
2022-09-15T09:35:46.563Z,17.10
2022-09-15T09:38:50.123Z,17.20
2022-09-15T09:41:51.831Z,17.20
2022-09-15T09:44:54.041Z,17.30
2022-09-15T09:48:03.038Z,17.40
2022-09-15T09:51:05.441Z,17.50
2022-09-15T09:54:20.800Z,17.50
2022-09-15T09:57:29.631Z,17.60
2022-09-15T10:00:40.433Z,17.60
2022-09-15T10:03:46.576Z,17.70
2022-09-15T10:06:49.401Z,17.70
2022-09-15T10:09:57.371Z,17.80
2022-09-15T10:13:02.471Z,17.80
2022-09-15T10:16:06.815Z,17.80
2022-09-15T10:19:15.567Z,17.90
2022-09-15T10:22:30.306Z,18.00
2022-09-15T10:25:49.662Z,18.10
2022-09-15T10:29:16.806Z,18.10
2022-09-15T10:32:30.029Z,18.10
2022-09-15T10:35:33.367Z,18.00
2022-09-15T10:38:47.784Z,18.10
2022-09-15T10:42:11.976Z,18.10
2022-09-15T10:45:28.767Z,18.10
2022-09-15T10:48:34.000Z,18.10
2022-09-15T10:51:49.635Z,18.10
2022-09-15T10:55:10.013Z,18.20
2022-09-15T10:58:43.649Z,18.20
2022-09-15T11:01:53.464Z,18.20
2022-09-15T11:05:25.196Z,18.20
2022-09-15T11:08:55.155Z,18.20
2022-09-15T11:12:16.938Z,18.20
2022-09-15T11:15:36.122Z,18.30
2022-09-15T11:18:58.863Z,18.40
2022-09-15T11:22:14.106Z,18.40
2022-09-15T11:25:25.104Z,18.40
2022-09-15T11:28:56.288Z,18.50
2022-09-15T11:32:06.828Z,18.40
2022-09-15T11:35:31.566Z,18.40
2022-09-15T11:38:40.665Z,18.40
2022-09-15T11:41:51.064Z,18.40
2022-09-15T11:44:55.436Z,18.30
2022-09-15T11:48:02.113Z,18.30
2022-09-15T11:51:06.757Z,18.30
2022-09-15T11:54:18.685Z,18.20
2022-09-15T11:57:26.764Z,18.20
2022-09-15T12:00:28.757Z,18.10
2022-09-15T12:03:43.241Z,18.10
2022-09-15T12:10:19.428Z,18.10
2022-09-15T12:13:24.886Z,18.10
2022-09-15T12:16:28.266Z,18.10
2022-09-15T12:19:35.793Z,18.10
2022-09-15T12:23:10.516Z,18.10
2022-09-15T12:26:27.523Z,18.10
2022-09-15T12:29:41.163Z,18.10
2022-09-15T12:32:44.172Z,18.20
2022-09-15T12:35:46.124Z,18.20
2022-09-15T12:38:49.414Z,18.20
2022-09-15T12:42:14.913Z,18.30
2022-09-15T12:45:36.210Z,18.40
2022-09-15T12:48:46.733Z,18.50
2022-09-15T12:51:50.837Z,18.50
2022-09-15T12:55:01.079Z,18.50
2022-09-15T12:58:14.549Z,18.60
2022-09-15T13:01:19.719Z,18.70
2022-09-15T13:04:41.851Z,18.70
2022-09-15T13:07:57.549Z,18.80
2022-09-15T13:11:14.639Z,18.70
2022-09-15T13:14:37.909Z,18.70
2022-09-15T13:17:46.278Z,18.60
2022-09-15T13:20:58.800Z,18.50
2022-09-15T13:24:02.662Z,18.50
2022-09-15T13:27:07.590Z,18.50
2022-09-15T13:30:24.352Z,18.40
2022-09-15T13:41:18.436Z,18.30
2022-09-15T13:44:39.010Z,18.20
2022-09-15T13:47:58.273Z,18.10
2022-09-15T13:51:03.938Z,18.00
2022-09-15T13:54:07.930Z,17.90
2022-09-15T13:57:09.823Z,17.90
2022-09-15T14:00:23.172Z,17.80
2022-09-15T14:10:27.037Z,17.70
2022-09-15T14:13:30.137Z,17.60
2022-09-15T14:16:35.120Z,17.60
2022-09-15T14:19:38.763Z,17.60
2022-09-15T14:22:40.940Z,17.60
2022-09-15T14:25:46.162Z,17.50
2022-09-15T14:29:18.634Z,17.50
2022-09-15T14:32:21.106Z,17.50
2022-09-15T14:35:25.974Z,17.60
2022-09-15T14:38:28.156Z,17.60
2022-09-15T14:41:32.841Z,17.70
2022-09-15T14:48:07.533Z,17.80
2022-09-15T14:51:14.500Z,17.90
2022-09-15T14:57:41.601Z,18.00
2022-09-15T15:01:09.605Z,18.00
2022-09-15T15:04:40.353Z,18.10
2022-09-15T15:07:43.584Z,18.10
2022-09-15T15:10:45.358Z,18.10
2022-09-15T15:13:52.134Z,18.20
2022-09-15T15:17:05.166Z,18.20
2022-09-15T15:20:09.781Z,18.20
2022-09-15T15:23:26.489Z,18.20
2022-09-15T15:26:40.435Z,18.30
2022-09-15T15:33:01.425Z,18.20
2022-09-15T15:36:12.082Z,18.20
2022-09-15T15:39:54.927Z,18.20
2022-09-15T15:43:22.197Z,18.20
2022-09-15T15:46:53.852Z,18.20
2022-09-15T15:53:23.534Z,18.10
2022-09-15T15:56:25.697Z,18.10
2022-09-15T15:59:27.493Z,18.10
2022-09-15T16:02:29.250Z,18.10
2022-09-15T16:05:32.858Z,18.10
2022-09-15T16:08:55.692Z,18.00
2022-09-15T16:11:58.249Z,18.00
2022-09-15T16:15:10.810Z,18.00
2022-09-15T16:18:22.121Z,17.90
2022-09-15T16:21:38.371Z,17.90
2022-09-15T16:24:40.054Z,17.80
2022-09-15T16:27:41.873Z,17.80
2022-09-15T16:30:44.429Z,17.70
2022-09-15T16:33:46.870Z,17.70
2022-09-15T16:37:02.558Z,17.70
2022-09-15T16:40:08.251Z,17.80
2022-09-15T16:43:18.134Z,17.70
2022-09-15T16:46:20.547Z,17.70
2022-09-15T16:49:22.452Z,17.70
2022-09-15T16:52:24.421Z,17.70
2022-09-15T16:55:36.452Z,17.70
2022-09-15T16:58:39.053Z,17.70
2022-09-15T17:01:41.109Z,17.70
2022-09-15T17:04:43.033Z,17.70
2022-09-15T17:07:45.012Z,17.60
2022-09-15T17:10:47.582Z,17.60
2022-09-15T17:13:49.980Z,17.60
2022-09-15T17:16:52.924Z,17.60
2022-09-15T17:20:07.320Z,17.60
2022-09-15T17:23:34.717Z,17.60
2022-09-15T17:26:39.849Z,17.60
2022-09-15T17:29:47.709Z,17.50
2022-09-15T17:33:29.990Z,17.50
2022-09-15T17:39:55.652Z,17.40
2022-09-15T17:43:03.398Z,17.40
2022-09-15T17:46:06.102Z,17.30
2022-09-15T17:49:08.103Z,17.30
2022-09-15T17:52:21.430Z,17.30
2022-09-15T17:55:34.955Z,17.30
2022-09-15T17:58:36.929Z,17.30
2022-09-15T18:01:50.601Z,17.30
2022-09-15T18:05:17.090Z,17.20
2022-09-15T18:08:25.662Z,17.20
2022-09-15T18:11:40.309Z,17.20
2022-09-15T18:14:42.477Z,17.10
2022-09-15T18:18:03.897Z,17.10
2022-09-15T18:21:34.058Z,17.00
2022-09-15T18:24:35.826Z,17.00
2022-09-15T18:27:40.398Z,17.10
2022-09-15T18:30:45.321Z,17.00
2022-09-15T18:33:48.355Z,17.00
2022-09-15T18:37:02.626Z,17.00
2022-09-15T18:43:35.151Z,16.90
2022-09-15T18:46:39.297Z,16.90
2022-09-15T18:49:41.111Z,16.80
2022-09-15T18:52:58.257Z,16.80
2022-09-15T18:56:14.065Z,16.80
2022-09-15T18:59:17.746Z,16.70
2022-09-15T19:05:41.597Z,16.70
2022-09-15T19:08:46.251Z,16.70
2022-09-15T19:18:22.415Z,16.60
2022-09-15T19:21:33.718Z,16.60
2022-09-15T19:24:46.164Z,16.60
2022-09-15T19:27:51.108Z,16.60
2022-09-15T19:31:01.625Z,16.60
2022-09-15T19:34:04.573Z,16.60
2022-09-15T19:37:14.077Z,16.50
2022-09-15T19:40:18.563Z,16.50
2022-09-15T19:43:20.674Z,16.50
2022-09-15T19:46:33.013Z,16.40
2022-09-15T19:49:37.911Z,16.50
2022-09-15T19:52:40.172Z,16.50
2022-09-15T19:55:41.875Z,16.40
2022-09-15T19:58:50.591Z,16.40
2022-09-15T20:02:04.724Z,16.40
2022-09-15T20:05:07.953Z,16.40
2022-09-15T20:08:22.718Z,16.40
2022-09-15T20:11:27.202Z,16.40
2022-09-15T20:14:41.377Z,16.40
2022-09-15T20:17:49.478Z,16.40
2022-09-15T20:21:07.728Z,16.40
2022-09-15T20:24:23.655Z,16.30
2022-09-15T20:27:25.654Z,16.30
2022-09-15T20:30:27.707Z,16.30
2022-09-15T20:33:46.081Z,16.30
2022-09-15T20:36:48.004Z,16.40
2022-09-15T20:39:51.314Z,16.40
2022-09-15T20:43:11.710Z,16.30
2022-09-15T20:46:31.560Z,16.30
2022-09-15T20:49:39.491Z,16.40
2022-09-15T20:52:50.192Z,16.40
2022-09-15T20:55:52.071Z,16.30
2022-09-15T20:58:55.777Z,16.30
2022-09-15T21:02:06.581Z,16.30
2022-09-15T21:19:09.648Z,16.20
2022-09-15T21:25:33.079Z,16.10
2022-09-15T21:29:08.145Z,16.10
2022-09-15T21:32:25.346Z,16.10
2022-09-15T21:35:47.434Z,16.10
2022-09-15T21:39:02.744Z,16.10
2022-09-15T21:42:12.838Z,16.00
2022-09-15T21:45:14.535Z,16.00
2022-09-15T21:48:27.345Z,16.00
2022-09-15T21:51:30.851Z,16.00
2022-09-15T21:54:36.420Z,16.00
2022-09-15T21:57:38.606Z,15.90
2022-09-15T22:00:43.858Z,15.90
2022-09-15T22:04:22.556Z,15.90
2022-09-15T22:07:22.654Z,15.80
2022-09-15T22:10:31.563Z,15.80
2022-09-15T22:13:49.513Z,15.90
2022-09-15T22:17:03.483Z,15.80
2022-09-15T22:20:09.389Z,15.80
2022-09-15T22:23:11.100Z,15.80
2022-09-15T22:26:47.426Z,15.70
2022-09-15T22:29:49.562Z,15.80
2022-09-15T22:36:26.586Z,15.70
2022-09-15T22:46:19.014Z,15.70
2022-09-15T22:49:20.902Z,15.60
2022-09-15T22:52:25.818Z,15.60
2022-09-15T22:55:30.146Z,15.60
2022-09-15T23:01:56.887Z,15.50
2022-09-15T23:05:11.036Z,15.60
2022-09-15T23:08:14.700Z,15.50
2022-09-15T23:11:39.639Z,15.50
2022-09-15T23:14:45.164Z,15.50
2022-09-15T23:17:47.417Z,15.50
2022-09-15T23:27:49.561Z,15.50
2022-09-15T23:31:06.831Z,15.50
2022-09-15T23:34:20.184Z,15.40
2022-09-15T23:37:22.315Z,15.40
2022-09-15T23:40:33.231Z,15.40
2022-09-15T23:43:35.839Z,15.40
2022-09-15T23:46:37.681Z,15.40
2022-09-15T23:49:39.523Z,15.40
2022-09-15T23:52:56.598Z,15.30
2022-09-15T23:59:41.109Z,15.40
